F/V Anna Mamm Mari — FOHD — position and weather

sailwx.info

Track history (hours):
 
Tides and Currents Weather Stations Pressure Air Temp Water Temp Dewpoint Dewpoint Depression Visibility Wind Speed Wind Dir Waves Ship Positions

F/V Anna Mamm Mari

Last reported at 2014-Nov-23 20:33 UTC. Time now 2014-Nov-24 01:18 UTC.
Position N 46°30' W 001°47'.

Length 17 m.

Type: Fishing. MMSI: 228393000.

Date/timePositionNaut miles runAvg speedWind from/ knotsBaromVisibWave heightAir tempDewpointWater temp
2014-Nov-23 20:33N 46°30' W 001°47'3 3.2
2014-Nov-23 19:33N 46°27' W 001°49'8 8.4
2014-Nov-23 18:33N 46°21' W 001°57'20 0.9
2014-Nov-22 20:04N 46°07' W 002°17'3 0.2
2014-Nov-22 01:29N 46°06' W 002°21'0 0.0
2014-Nov-22 00:33N 46°06' W 002°21'0 0.0
2014-Nov-21 23:32N 46°06' W 002°21'3 0.2
2014-Nov-21 06:33N 46°07' W 002°18'1 0.2
2014-Nov-21 01:07N 46°07' W 002°17'0 0.0
2014-Nov-21 00:21N 46°07' W 002°17'4 0.2
2014-Nov-20 08:21N 46°10' W 002°15'7 7.3
2014-Nov-20 07:23N 46°15' W 002°07'9 7.5
2014-Nov-20 06:09N 46°22' W 001°58'5 7.7
2014-Nov-20 05:33N 46°25' W 001°53'6 6.3
2014-Nov-20 04:33N 46°30' W 001°47'0 0.0
2014-Nov-20 03:33N 46°30' W 001°47'0 0.0
2014-Nov-20 02:33N 46°30' W 001°47'0 0.0
2014-Nov-20 01:33N 46°30' W 001°47'0 0.1
2014-Nov-20 00:34N 46°30' W 001°47'0 0.0
2014-Nov-19 23:33N 46°30' W 001°47'0 0.0
2014-Nov-19 22:33N 46°30' W 001°47'0 0.2
2014-Nov-19 21:33N 46°30' W 001°47'0 0.2
2014-Nov-19 20:33N 46°30' W 001°47'0 0.2
2014-Nov-19 19:33N 46°30' W 001°47'7 7.3
2014-Nov-19 18:33N 46°24' W 001°54'2 0.1
2014-Nov-18 05:29N 46°25' W 001°57'6 6.6
2014-Nov-18 04:33N 46°27' W 001°49'3 2.7
2014-Nov-18 03:33N 46°30' W 001°47'0 0.0
2014-Nov-18 02:33N 46°30' W 001°47'0 0.1
2014-Nov-18 01:33N 46°30' W 001°47'0 0.0
2014-Nov-18 00:33N 46°30' W 001°47'4 3.7
2014-Nov-17 23:33N 46°27' W 001°50'8 7.7
2014-Nov-17 22:33N 46°21' W 001°58'0 0.0
2014-Nov-17 05:08N 46°21' W 001°58'4 7.3
2014-Nov-17 04:33N 46°24' W 001°54'7 6.8
2014-Nov-17 03:33N 46°30' W 001°48'0 0.4
2014-Nov-17 02:33N 46°30' W 001°47'0 0.0
2014-Nov-17 01:33N 46°30' W 001°47'0 0.0
2014-Nov-17 00:33N 46°30' W 001°47'0 0.0
2014-Nov-16 23:33N 46°30' W 001°47'0 0.0
2014-Nov-16 22:33N 46°30' W 001°47'0 0.1
2014-Nov-16 21:33N 46°30' W 001°47'3 2.6
2014-Nov-16 20:33N 46°27' W 001°49'11 8.6
2014-Nov-16 19:14N 46°20' W 002°01'  
2014-Nov-13 23:03N 46°30' W 001°48'0 0.0
2014-Nov-13 22:33N 46°30' W 001°48'0 0.0
2014-Nov-13 21:33N 46°30' W 001°48'0 0.2
2014-Nov-13 20:34N 46°30' W 001°47'  
Track history (hours):
 
Tides and Currents Weather Stations Pressure Air Temp Water Temp Dewpoint Dewpoint Depression Visibility Wind Speed Wind Dir Waves Ship Positions

F/V Anna Mamm Mari

Last reported at 2014-Nov-23 20:33 UTC. Time now 2014-Nov-24 01:18 UTC.
Position N 46°30' W 001°47'.

Length 17 m.

Type: Fishing. MMSI: 228393000.

Date/timePositionNaut miles runAvg speedWind from/ knotsBaromVisibWave heightAir tempDewpointWater temp
2014-Nov-23 20:33N 46°30' W 001°47'3 3.2
2014-Nov-23 19:33N 46°27' W 001°49'8 8.4
2014-Nov-23 18:33N 46°21' W 001°57'20 0.9
2014-Nov-22 20:04N 46°07' W 002°17'3 0.2
2014-Nov-22 01:29N 46°06' W 002°21'0 0.0
2014-Nov-22 00:33N 46°06' W 002°21'0 0.0
2014-Nov-21 23:32N 46°06' W 002°21'3 0.2
2014-Nov-21 06:33N 46°07' W 002°18'1 0.2
2014-Nov-21 01:07N 46°07' W 002°17'0 0.0
2014-Nov-21 00:21N 46°07' W 002°17'4 0.2
2014-Nov-20 08:21N 46°10' W 002°15'7 7.3
2014-Nov-20 07:23N 46°15' W 002°07'9 7.5
2014-Nov-20 06:09N 46°22' W 001°58'5 7.7
2014-Nov-20 05:33N 46°25' W 001°53'6 6.3
2014-Nov-20 04:33N 46°30' W 001°47'0 0.0
2014-Nov-20 03:33N 46°30' W 001°47'0 0.0
2014-Nov-20 02:33N 46°30' W 001°47'0 0.0
2014-Nov-20 01:33N 46°30' W 001°47'0 0.1
2014-Nov-20 00:34N 46°30' W 001°47'0 0.0
2014-Nov-19 23:33N 46°30' W 001°47'0 0.0
2014-Nov-19 22:33N 46°30' W 001°47'0 0.2
2014-Nov-19 21:33N 46°30' W 001°47'0 0.2
2014-Nov-19 20:33N 46°30' W 001°47'0 0.2
2014-Nov-19 19:33N 46°30' W 001°47'7 7.3
2014-Nov-19 18:33N 46°24' W 001°54'2 0.1
2014-Nov-18 05:29N 46°25' W 001°57'6 6.6
2014-Nov-18 04:33N 46°27' W 001°49'3 2.7
2014-Nov-18 03:33N 46°30' W 001°47'0 0.0
2014-Nov-18 02:33N 46°30' W 001°47'0 0.1
2014-Nov-18 01:33N 46°30' W 001°47'0 0.0
2014-Nov-18 00:33N 46°30' W 001°47'4 3.7
2014-Nov-17 23:33N 46°27' W 001°50'8 7.7
2014-Nov-17 22:33N 46°21' W 001°58'0 0.0
2014-Nov-17 05:08N 46°21' W 001°58'4 7.3
2014-Nov-17 04:33N 46°24' W 001°54'7 6.8
2014-Nov-17 03:33N 46°30' W 001°48'0 0.4
2014-Nov-17 02:33N 46°30' W 001°47'0 0.0
2014-Nov-17 01:33N 46°30' W 001°47'0 0.0
2014-Nov-17 00:33N 46°30' W 001°47'0 0.0
2014-Nov-16 23:33N 46°30' W 001°47'0 0.0
2014-Nov-16 22:33N 46°30' W 001°47'0 0.1
2014-Nov-16 21:33N 46°30' W 001°47'3 2.6
2014-Nov-16 20:33N 46°27' W 001°49'11 8.6
2014-Nov-16 19:14N 46°20' W 002°01'  
2014-Nov-13 23:03N 46°30' W 001°48'0 0.0
2014-Nov-13 22:33N 46°30' W 001°48'0 0.0
2014-Nov-13 21:33N 46°30' W 001°48'0 0.2
2014-Nov-13 20:34N 46°30' W 001°47'  

Dump ship's entire track history